Port Huron, MI

8:42 PM EDT on March 27, 2015 (GMT -0400)
Port Huron Township | | Change Station
CLOSE
Current Station
Personal Weather Station
Location: Port Huron, MI
Elevation: 594 ft
Nearby Weather Stations

Elev 594 ft 43.00 °N, 82.48 °W | Updated 6 minutes ago

Overcast
Overcast
16.6 °F
Feels Like 17 °F
N
0.0
Wind Variable Wind from NNE
Gusts 5.0 mph

Today
High -- | Low -- °F
--% Chance of Precip.
Yesterday
High -- | Low -- °F
Precip. -- in
7:21 AM 7:50 PM
First Quarter, 57% visible
Pressure 30.11 in
Visibility 10.0 miles
Clouds Clear
Windchill 17 °F
Dew Point 9 °F
Humidity 71%
Rainfall 0.56 in
Snow Depth Not available.
UV 0 out of 12
Pollen 3.20 out of 12
Air Quality Not available.
Flu Activity Not available.
METAR KPHN 280036Z AUTO 33006KT 10SM CLR M08/M14 A3011 RMK AO2

More Conditions Fewer Conditions

Pressure 30.11 in
Visibility 10.0 miles
Clouds Clear
Windchill 17 °F
Dew Point 9 °F
Humidity 71%
Rainfall 0.56 in
Snow Depth Not available.
UV 0 out of 12
Pollen 3.20 out of 12
Air Quality Not available.
Flu Activity Not available.
METAR KPHN 280036Z AUTO 33006KT 10SM CLR M08/M14 A3011 RMK AO2

More Conditions Fewer Conditions

10-Day Weather Forecast

Almanac

Astronomy

Mar. 27, 2015 Rise Set
Actual Time
Civil Twilight
Nautical Twilight
Astronomical Twilight
Moon
Length of Visible Light
Length of Day
Tomorrow will be .
, % of the Moon is Illuminated

Today's Extremes

State Highs State Lows

Community

WunderPhotos

Upload Photos

1,808,894 photos uploaded!

WunderBlogs® & News

Nearby

Air Quality

  Air Quality AQ Index Pollutant
Not available.

Snow Depth

Station Depth Elevation

Earthquake Activity

City Distance Mag. Time & Date
Minimum magnitude displayed is 2.5.

Coastal Water Temperatures

Place Temperature

Stations

Nearby Weather Stations

Station Location Temp. Windchill Dew Point Humidity Wind Precip. Elev Updated Type